sensor_id;sensor_type;location;lat;lon;timestamp;pressure;altitude;pressure_sealevel;temperature;humidity
51876;BME280;34054;52.100;5.116;2022-07-03T00:00:08;101624.72;;;20.61;56.95
51876;BME280;34054;52.100;5.116;2022-07-03T00:00:41;101620.31;;;20.60;56.89
51876;BME280;34054;52.100;5.116;2022-07-03T00:01:13;101619.00;;;20.58;56.89
51876;BME280;34054;52.100;5.116;2022-07-03T00:01:44;101624.72;;;20.61;57.16
51876;BME280;34054;52.100;5.116;2022-07-03T00:02:17;101634.63;;;20.62;57.02
51876;BME280;34054;52.100;5.116;2022-07-03T00:02:48;101624.72;;;20.61;57.00
51876;BME280;34054;52.100;5.116;2022-07-03T00:03:20;101621.47;;;20.59;56.99
51876;BME280;34054;52.100;5.116;2022-07-03T00:03:52;101622.06;;;20.56;57.12
51876;BME280;34054;52.100;5.116;2022-07-03T00:04:24;101629.03;;;20.53;57.22
51876;BME280;34054;52.100;5.116;2022-07-03T00:04:56;101626.25;;;20.53;57.35
51876;BME280;34054;52.100;5.116;2022-07-03T00:05:28;101624.63;;;20.52;57.55
51876;BME280;34054;52.100;5.116;2022-07-03T00:06:00;101624.09;;;20.50;57.59
51876;BME280;34054;52.100;5.116;2022-07-03T00:06:32;101625.22;;;20.49;57.66
51876;BME280;34054;52.100;5.116;2022-07-03T00:07:05;101618.19;;;20.43;57.91
51876;BME280;34054;52.100;5.116;2022-07-03T00:07:38;101623.09;;;20.46;58.08
51876;BME280;34054;52.100;5.116;2022-07-03T00:08:09;101621.47;;;20.45;58.22
51876;BME280;34054;52.100;5.116;2022-07-03T00:08:42;101625.34;;;20.44;57.79
51876;BME280;34054;52.100;5.116;2022-07-03T00:09:14;101618.69;;;20.45;58.27
51876;BME280;34054;52.100;5.116;2022-07-03T00:09:45;101615.72;;;20.42;58.17
51876;BME280;34054;52.100;5.116;2022-07-03T00:10:19;101614.91;;;20.41;58.12
51876;BME280;34054;52.100;5.116;2022-07-03T00:10:51;101619.63;;;20.40;58.16
51876;BME280;34054;52.100;5.116;2022-07-03T00:11:23;101612.97;;;20.42;58.30
51876;BME280;34054;52.100;5.116;2022-07-03T00:11:55;101615.72;;;20.42;58.18
51876;BME280;34054;52.100;5.116;2022-07-03T00:12:27;101624.00;;;20.42;58.57
51876;BME280;34054;52.100;5.116;2022-07-03T00:12:59;101617.13;;;20.39;58.63
51876;BME280;34054;52.100;5.116;2022-07-03T00:13:31;101609.50;;;20.36;58.52
51876;BME280;34054;52.100;5.116;2022-07-03T00:14:03;101616.66;;;20.37;58.85
51876;BME280;34054;52.100;5.116;2022-07-03T00:14:35;101609.81;;;20.34;58.62
51876;BME280;34054;52.100;5.116;2022-07-03T00:15:08;101613.69;;;20.33;58.94
51876;BME280;34054;52.100;5.116;2022-07-03T00:15:40;101615.09;;;20.31;58.83
51876;BME280;34054;52.100;5.116;2022-07-03T00:16:12;101616.44;;;20.33;58.92
51876;BME280;34054;52.100;5.116;2022-07-03T00:16:45;101597.63;;;20.21;59.04
51876;BME280;34054;52.100;5.116;2022-07-03T00:17:17;101612.31;;;20.31;58.88
51876;BME280;34054;52.100;5.116;2022-07-03T00:17:48;101617.56;;;20.32;58.72
51876;BME280;34054;52.100;5.116;2022-07-03T00:18:21;101614.28;;;20.30;58.94
51876;BME280;34054;52.100;5.116;2022-07-03T00:18:52;101619.78;;;20.30;58.77
51876;BME280;34054;52.100;5.116;2022-07-03T00:19:25;101613.47;;;20.30;59.11
51876;BME280;34054;52.100;5.116;2022-07-03T00:19:58;101618.75;;;20.26;58.98
51876;BME280;34054;52.100;5.116;2022-07-03T00:20:35;101617.94;;;20.26;59.12
51876;BME280;34054;52.100;5.116;2022-07-03T00:21:12;101619.06;;;20.24;59.19
51876;BME280;34054;52.100;5.116;2022-07-03T00:21:53;101614.78;;;20.18;59.30
51876;BME280;34054;52.100;5.116;2022-07-03T00:22:29;101604.88;;;20.17;59.26
51876;BME280;34054;52.100;5.116;2022-07-03T00:23:09;101613.03;;;20.22;59.46
51876;BME280;34054;52.100;5.116;2022-07-03T00:23:46;101615.31;;;20.20;59.50
51876;BME280;34054;52.100;5.116;2022-07-03T00:24:25;101610.06;;;20.19;59.55
51876;BME280;34054;52.100;5.116;2022-07-03T00:25:03;101607.94;;;20.16;59.75
51876;BME280;34054;52.100;5.116;2022-07-03T00:25:38;101617.84;;;20.17;59.58
51876;BME280;34054;52.100;5.116;2022-07-03T00:26:13;101608.22;;;20.14;59.60
51876;BME280;34054;52.100;5.116;2022-07-03T00:26:49;101608.22;;;20.14;59.89
51876;BME280;34054;52.100;5.116;2022-07-03T00:27:24;101605.78;;;20.13;59.88
51876;BME280;34054;52.100;5.116;2022-07-03T00:27:57;101605.25;;;20.11;59.71
51876;BME280;34054;52.100;5.116;2022-07-03T00:28:30;101603.91;;;20.08;59.90
51876;BME280;34054;52.100;5.116;2022-07-03T00:29:03;101614.16;;;20.07;59.81
51876;BME280;34054;52.100;5.116;2022-07-03T00:29:41;101601.75;;;20.05;60.21
51876;BME280;34054;52.100;5.116;2022-07-03T00:30:14;101607.00;;;20.06;60.29
51876;BME280;34054;52.100;5.116;2022-07-03T00:30:47;101616.06;;;20.07;60.22
51876;BME280;34054;52.100;5.116;2022-07-03T00:31:22;101607.28;;;20.05;60.26
51876;BME280;34054;52.100;5.116;2022-07-03T00:31:54;101610.34;;;20.03;60.05
51876;BME280;34054;52.100;5.116;2022-07-03T00:32:27;101606.78;;;20.03;60.52
51876;BME280;34054;52.100;5.116;2022-07-03T00:33:01;101609.03;;;20.01;60.53
51876;BME280;34054;52.100;5.116;2022-07-03T00:33:35;101594.59;;;19.90;60.49
51876;BME280;34054;52.100;5.116;2022-07-03T00:34:11;101614.00;;;19.99;60.73
51876;BME280;34054;52.100;5.116;2022-07-03T00:34:50;101614.00;;;19.99;60.55
51876;BME280;34054;52.100;5.116;2022-07-03T00:35:24;101604.41;;;19.96;60.68
51876;BME280;34054;52.100;5.116;2022-07-03T00:35:56;101619.00;;;19.97;60.80
51876;BME280;34054;52.100;5.116;2022-07-03T00:36:30;101612.38;;;19.98;60.52
51876;BME280;34054;52.100;5.116;2022-07-03T00:37:07;101613.19;;;19.98;60.55
51876;BME280;34054;52.100;5.116;2022-07-03T00:37:41;101608.50;;;19.99;60.49
51876;BME280;34054;52.100;5.116;2022-07-03T00:38:13;101601.97;;;19.95;60.45
51876;BME280;34054;52.100;5.116;2022-07-03T00:38:45;101613.19;;;19.98;60.72
51876;BME280;34054;52.100;5.116;2022-07-03T00:39:17;101617.59;;;19.99;60.72
51876;BME280;34054;52.100;5.116;2022-07-03T00:39:50;101605.84;;;19.93;60.64
51876;BME280;34054;52.100;5.116;2022-07-03T00:40:22;101603.88;;;19.94;60.83
51876;BME280;34054;52.100;5.116;2022-07-03T00:40:56;101606.94;;;19.92;60.88
51876;BME280;34054;52.100;5.116;2022-07-03T00:41:32;101608.66;;;19.88;61.09
51876;BME280;34054;52.100;5.116;2022-07-03T00:42:06;101609.81;;;19.87;61.17
51876;BME280;34054;52.100;5.116;2022-07-03T00:42:40;101598.59;;;19.78;61.12
51876;BME280;34054;52.100;5.116;2022-07-03T00:43:15;101607.63;;;19.84;61.01
51876;BME280;34054;52.100;5.116;2022-07-03T00:43:48;101605.41;;;19.86;60.90
51876;BME280;34054;52.100;5.116;2022-07-03T00:44:20;101607.06;;;19.87;61.03
51876;BME280;34054;52.100;5.116;2022-07-03T00:44:54;101611.41;;;19.88;60.73
51876;BME280;34054;52.100;5.116;2022-07-03T00:45:33;101607.53;;;19.89;60.69
51876;BME280;34054;52.100;5.116;2022-07-03T00:46:07;101610.63;;;19.88;61.02
51876;BME280;34054;52.100;5.116;2022-07-03T00:46:40;101606.22;;;19.87;60.81
51876;BME280;34054;52.100;5.116;2022-07-03T00:47:14;101614.47;;;19.87;61.03
51876;BME280;34054;52.100;5.116;2022-07-03T00:47:48;101607.63;;;19.84;60.79
51876;BME280;34054;52.100;5.116;2022-07-03T00:48:20;101611.47;;;19.83;60.93
51876;BME280;34054;52.100;5.116;2022-07-03T00:48:55;101615.34;;;19.82;60.95
51876;BME280;34054;52.100;5.116;2022-07-03T00:49:29;101612.38;;;19.78;61.33
51876;BME280;34054;52.100;5.116;2022-07-03T00:50:06;101609.63;;;19.78;61.08
51876;BME280;34054;52.100;5.116;2022-07-03T00:50:44;101612.06;;;19.80;61.20
51876;BME280;34054;52.100;5.116;2022-07-03T00:51:21;101609.94;;;19.77;61.27
51876;BME280;34054;52.100;5.116;2022-07-03T00:51:53;101600.84;;;19.76;61.25
51876;BME280;34054;52.100;5.116;2022-07-03T00:52:30;101608.00;;;19.77;61.05
51876;BME280;34054;52.100;5.116;2022-07-03T00:53:02;101595.31;;;19.76;61.20
51876;BME280;34054;52.100;5.116;2022-07-03T00:53:36;101603.31;;;19.78;61.45
51876;BME280;34054;52.100;5.116;2022-07-03T00:54:09;101598.91;;;19.77;61.13
51876;BME280;34054;52.100;5.116;2022-07-03T00:54:51;101596.38;;;19.81;61.27
51876;BME280;34054;52.100;5.116;2022-07-03T00:55:26;101596.75;;;19.74;61.22
51876;BME280;34054;52.100;5.116;2022-07-03T00:56:03;101604.91;;;19.79;61.29
51876;BME280;34054;52.100;5.116;2022-07-03T00:56:39;101606.56;;;19.80;61.07
51876;BME280;34054;52.100;5.116;2022-07-03T00:57:17;101601.66;;;19.77;61.03
51876;BME280;34054;52.100;5.116;2022-07-03T00:57:50;101602.84;;;19.71;61.20
51876;BME280;34054;52.100;5.116;2022-07-03T00:58:22;101591.84;;;19.71;61.18
51876;BME280;34054;52.100;5.116;2022-07-03T00:58:55;101580.09;;;19.65;61.23
51876;BME280;34054;52.100;5.116;2022-07-03T00:59:29;101598.59;;;19.78;61.21
51876;BME280;34054;52.100;5.116;2022-07-03T01:00:01;101606.66;;;19.75;61.08
51876;BME280;34054;52.100;5.116;2022-07-03T01:00:34;101605.91;;;19.69;61.17
51876;BME280;34054;52.100;5.116;2022-07-03T01:01:16;101595.28;;;19.62;61.45
51876;BME280;34054;52.100;5.116;2022-07-03T01:01:53;101607.03;;;19.68;61.40
51876;BME280;34054;52.100;5.116;2022-07-03T01:02:42;101605.69;;;19.66;61.48
51876;BME280;34054;52.100;5.116;2022-07-03T01:03:26;101608.78;;;19.64;61.56
51876;BME280;34054;52.100;5.116;2022-07-03T01:04:20;101600.78;;;19.62;61.72
51876;BME280;34054;52.100;5.116;2022-07-03T01:05:02;101606.91;;;19.59;61.61
51876;BME280;34054;52.100;5.116;2022-07-03T01:05:44;101605.28;;;19.58;62.00
51876;BME280;34054;52.100;5.116;2022-07-03T01:06:17;101603.41;;;19.54;61.93
51876;BME280;34054;52.100;5.116;2022-07-03T01:06:52;101599.75;;;19.58;61.63
51876;BME280;34054;52.100;5.116;2022-07-03T01:07:39;101608.25;;;19.62;61.43
51876;BME280;34054;52.100;5.116;2022-07-03T01:08:33;101607.94;;;19.64;61.30
51876;BME280;34054;52.100;5.116;2022-07-03T01:09:12;101602.22;;;19.60;61.67
51876;BME280;34054;52.100;5.116;2022-07-03T01:09:51;101608.16;;;19.67;61.29
51876;BME280;34054;52.100;5.116;2022-07-03T01:10:36;101605.41;;;19.67;61.27
51876;BME280;34054;52.100;5.116;2022-07-03T01:11:21;101603.84;;;19.61;61.38
51876;BME280;34054;52.100;5.116;2022-07-03T01:12:03;101604.44;;;19.58;61.40
51876;BME280;34054;52.100;5.116;2022-07-03T01:12:54;101602.00;;;19.56;61.50
51876;BME280;34054;52.100;5.116;2022-07-03T01:13:38;101597.69;;;19.50;61.78
51876;BME280;34054;52.100;5.116;2022-07-03T01:14:24;101601.25;;;19.51;61.79
51876;BME280;34054;52.100;5.116;2022-07-03T01:15:07;101602.59;;;19.53;61.77
51876;BME280;34054;52.100;5.116;2022-07-03T01:15:52;101599.84;;;19.53;61.73
51876;BME280;34054;52.100;5.116;2022-07-03T01:16:36;101605.84;;;19.55;61.62
51876;BME280;34054;52.100;5.116;2022-07-03T01:17:20;101608.13;;;19.53;61.64
51876;BME280;34054;52.100;5.116;2022-07-03T01:18:13;101610.03;;;19.53;61.73
51876;BME280;34054;52.100;5.116;2022-07-03T01:18:58;101606.91;;;19.59;60.97
51876;BME280;34054;52.100;5.116;2022-07-03T01:19:38;101610.69;;;19.64;59.87
51876;BME280;34054;52.100;5.116;2022-07-03T01:20:12;101602.72;;;19.62;59.99
51876;BME280;34054;52.100;5.116;2022-07-03T01:20:52;101609.03;;;19.62;59.62
51876;BME280;34054;52.100;5.116;2022-07-03T01:21:34;101611.00;;;19.62;59.38
51876;BME280;34054;52.100;5.116;2022-07-03T01:22:18;101600.44;;;19.50;60.43
51876;BME280;34054;52.100;5.116;2022-07-03T01:23:03;101600.97;;;19.52;60.67
51876;BME280;34054;52.100;5.116;2022-07-03T01:25:21;101595.88;;;19.59;59.49
51876;BME280;34054;52.100;5.116;2022-07-03T01:25:58;101595.47;;;19.52;59.84
51876;BME280;34054;52.100;5.116;2022-07-03T01:26:38;101595.38;;;19.57;60.30
51876;BME280;34054;52.100;5.116;2022-07-03T01:27:14;101593.34;;;19.63;59.47
51876;BME280;34054;52.100;5.116;2022-07-03T01:28:08;101595.28;;;19.62;59.39
51876;BME280;34054;52.100;5.116;2022-07-03T01:28:45;101600.78;;;19.62;59.89
51876;BME280;34054;52.100;5.116;2022-07-03T01:29:21;101581.69;;;19.52;59.87
51876;BME280;34054;52.100;5.116;2022-07-03T01:30:02;101596.91;;;19.64;59.41
51876;BME280;34054;52.100;5.116;2022-07-03T01:30:41;101589.25;;;19.60;59.79
51876;BME280;34054;52.100;5.116;2022-07-03T01:31:19;101594.69;;;19.66;59.80
51876;BME280;34054;52.100;5.116;2022-07-03T01:31:54;101589.47;;;19.64;59.77
51876;BME280;34054;52.100;5.116;2022-07-03T01:32:32;101584.34;;;19.57;60.09
51876;BME280;34054;52.100;5.116;2022-07-03T01:33:10;101581.81;;;19.61;59.90
51876;BME280;34054;52.100;5.116;2022-07-03T01:33:50;101585.69;;;19.60;60.21
51876;BME280;34054;52.100;5.116;2022-07-03T01:34:25;101587.63;;;19.59;60.43
51876;BME280;34054;52.100;5.116;2022-07-03T01:35:07;101580.78;;;19.57;60.64
51876;BME280;34054;52.100;5.116;2022-07-03T01:35:51;101577.50;;;19.55;60.56
51876;BME280;34054;52.100;5.116;2022-07-03T01:36:30;101574.75;;;19.55;60.76
51876;BME280;34054;52.100;5.116;2022-07-03T01:37:06;101580.78;;;19.57;60.77
51876;BME280;34054;52.100;5.116;2022-07-03T01:37:40;101578.84;;;19.57;60.84
51876;BME280;34054;52.100;5.116;2022-07-03T01:38:13;101578.31;;;19.55;60.68
51876;BME280;34054;52.100;5.116;2022-07-03T01:38:48;101585.78;;;19.55;60.82
51876;BME280;34054;52.100;5.116;2022-07-03T01:39:23;101577.72;;;19.58;60.25
51876;BME280;34054;52.100;5.116;2022-07-03T01:39:58;101580.47;;;19.58;59.90
51876;BME280;34054;52.100;5.116;2022-07-03T01:40:33;101582.13;;;19.59;58.87
51876;BME280;34054;52.100;5.116;2022-07-03T01:41:08;101577.66;;;19.44;58.24
51876;BME280;34054;52.100;5.116;2022-07-03T01:41:44;101582.94;;;19.41;58.32
51876;BME280;34054;52.100;5.116;2022-07-03T01:42:18;101575.44;;;19.27;58.67
51876;BME280;34054;52.100;5.116;2022-07-03T01:42:51;101582.06;;;19.26;58.71
51876;BME280;34054;52.100;5.116;2022-07-03T01:43:28;101576.72;;;19.16;58.95
51876;BME280;34054;52.100;5.116;2022-07-03T01:44:02;101583.63;;;19.13;58.63
51876;BME280;34054;52.100;5.116;2022-07-03T01:44:38;101582.88;;;19.08;59.14
51876;BME280;34054;52.100;5.116;2022-07-03T01:45:14;101579.59;;;19.06;59.45
51876;BME280;34054;52.100;5.116;2022-07-03T01:45:48;101581.75;;;19.09;59.34
51876;BME280;34054;52.100;5.116;2022-07-03T01:46:27;101580.88;;;19.13;59.62
51876;BME280;34054;52.100;5.116;2022-07-03T01:47:02;101577.81;;;19.15;59.89
51876;BME280;34054;52.100;5.116;2022-07-03T01:47:34;101586.00;;;19.20;60.07
51876;BME280;34054;52.100;5.116;2022-07-03T01:48:09;101578.78;;;19.24;60.02
51876;BME280;34054;52.100;5.116;2022-07-03T01:48:44;101577.06;;;19.28;60.23
51876;BME280;34054;52.100;5.116;2022-07-03T01:49:16;101571.56;;;19.28;60.26
51876;BME280;34054;52.100;5.116;2022-07-03T01:49:49;101575.88;;;19.35;60.02
51876;BME280;34054;52.100;5.116;2022-07-03T01:50:24;101575.38;;;19.33;60.36
51876;BME280;34054;52.100;5.116;2022-07-03T01:50:59;101579.13;;;19.37;60.48
51876;BME280;34054;52.100;5.116;2022-07-03T01:51:34;101571.41;;;19.39;60.37
51876;BME280;34054;52.100;5.116;2022-07-03T01:52:10;101578.56;;;19.40;60.47
51876;BME280;34054;52.100;5.116;2022-07-03T01:52:45;101579.28;;;19.45;60.60
51876;BME280;34054;52.100;5.116;2022-07-03T01:53:23;101571.13;;;19.40;60.27
51876;BME280;34054;52.100;5.116;2022-07-03T01:53:57;101574.91;;;19.44;60.49
51876;BME280;34054;52.100;5.116;2022-07-03T01:54:31;101574.09;;;19.44;60.34
51876;BME280;34054;52.100;5.116;2022-07-03T01:55:07;101580.31;;;19.50;60.12
51876;BME280;34054;52.100;5.116;2022-07-03T01:55:41;101577.50;;;19.55;59.68
51876;BME280;34054;52.100;5.116;2022-07-03T01:56:17;101576.66;;;19.54;59.65
51876;BME280;34054;52.100;5.116;2022-07-03T01:56:51;101576.38;;;19.56;59.50
51876;BME280;34054;52.100;5.116;2022-07-03T01:57:26;101571.47;;;19.53;59.27
51876;BME280;34054;52.100;5.116;2022-07-03T01:58:08;101577.81;;;19.53;59.02
51876;BME280;34054;52.100;5.116;2022-07-03T01:58:40;101568.06;;;19.42;59.55
51876;BME280;34054;52.100;5.116;2022-07-03T01:59:13;101568.06;;;19.42;58.83
51876;BME280;34054;52.100;5.116;2022-07-03T01:59:45;101574.38;;;19.42;58.74
51876;BME280;34054;52.100;5.116;2022-07-03T02:00:21;101580.72;;;19.43;58.65
51876;BME280;34054;52.100;5.116;2022-07-03T02:01:00;101572.31;;;19.34;59.06
51876;BME280;34054;52.100;5.116;2022-07-03T02:01:43;101567.09;;;19.33;59.31
51876;BME280;34054;52.100;5.116;2022-07-03T02:02:28;101571.56;;;19.28;59.12
51876;BME280;34054;52.100;5.116;2022-07-03T02:03:06;101564.19;;;19.24;59.23
51876;BME280;34054;52.100;5.116;2022-07-03T02:03:42;101571.56;;;19.28;59.55
51876;BME280;34054;52.100;5.116;2022-07-03T02:04:44;101563.25;;;19.14;59.72
51876;BME280;34054;52.100;5.116;2022-07-03T02:05:34;101559.59;;;19.19;60.07
51876;BME280;34054;52.100;5.116;2022-07-03T02:06:13;101557.06;;;19.23;59.92
51876;BME280;34054;52.100;5.116;2022-07-03T02:07:02;101562.78;;;19.26;60.04
51876;BME280;34054;52.100;5.116;2022-07-03T02:07:41;101573.72;;;19.32;60.11
51876;BME280;34054;52.100;5.116;2022-07-03T02:08:33;101568.38;;;19.40;60.13
51876;BME280;34054;52.100;5.116;2022-07-03T02:09:10;101565.31;;;19.42;59.90
51876;BME280;34054;52.100;5.116;2022-07-03T02:09:46;101577.97;;;19.43;59.25
51876;BME280;34054;52.100;5.116;2022-07-03T02:10:27;101567.41;;;19.31;59.44
51876;BME280;34054;52.100;5.116;2022-07-03T02:11:08;101571.84;;;19.27;59.12
51876;BME280;34054;52.100;5.116;2022-07-03T02:11:43;101566.28;;;19.13;59.23
51876;BME280;34054;52.100;5.116;2022-07-03T02:12:19;101566.19;;;18.99;59.57
51876;BME280;34054;52.100;5.116;2022-07-03T02:13:00;101561.28;;;18.72;60.58
51876;BME280;34054;52.100;5.116;2022-07-03T02:13:40;101578.00;;;18.56;61.16
51876;BME280;34054;52.100;5.116;2022-07-03T02:14:24;101575.06;;;18.47;61.43
51876;BME280;34054;52.100;5.116;2022-07-03T02:15:03;101573.69;;;18.50;61.63
51876;BME280;34054;52.100;5.116;2022-07-03T02:15:42;101577.94;;;18.61;61.70
51876;BME280;34054;52.100;5.116;2022-07-03T02:16:18;101574.53;;;18.70;61.68
51876;BME280;34054;52.100;5.116;2022-07-03T02:17:01;101579.09;;;18.79;61.58
51876;BME280;34054;52.100;5.116;2022-07-03T02:17:43;101566.59;;;18.87;61.33
51876;BME280;34054;52.100;5.116;2022-07-03T02:18:25;101575.63;;;18.93;61.17
51876;BME280;34054;52.100;5.116;2022-07-03T02:19:38;101566.50;;;18.97;61.11
51876;BME280;34054;52.100;5.116;2022-07-03T02:20:16;101580.66;;;19.10;60.94
51876;BME280;34054;52.100;5.116;2022-07-03T02:21:02;101578.72;;;19.10;60.95
51876;BME280;34054;52.100;5.116;2022-07-03T02:21:39;101575.06;;;19.15;61.05
51876;BME280;34054;52.100;5.116;2022-07-03T02:22:19;101569.25;;;19.17;60.39
51876;BME280;34054;52.100;5.116;2022-07-03T02:22:57;101570.09;;;19.17;60.18
51876;BME280;34054;52.100;5.116;2022-07-03T02:23:36;101571.19;;;19.16;60.51
51876;BME280;34054;52.100;5.116;2022-07-03T02:24:19;101562.72;;;19.12;60.65
51876;BME280;34054;52.100;5.116;2022-07-03T02:25:02;101566.22;;;19.18;60.69
51876;BME280;34054;52.100;5.116;2022-07-03T02:25:40;101567.59;;;19.15;60.80
51876;BME280;34054;52.100;5.116;2022-07-03T02:26:16;101560.25;;;19.11;60.94
51876;BME280;34054;52.100;5.116;2022-07-03T02:26:54;101570.84;;;19.23;60.36
51876;BME280;34054;52.100;5.116;2022-07-03T02:27:32;101580.00;;;19.18;59.95
51876;BME280;34054;52.100;5.116;2022-07-03T02:28:22;101572.97;;;19.07;60.05
51876;BME280;34054;52.100;5.116;2022-07-03T02:29:03;101575.56;;;18.98;60.53
51876;BME280;34054;52.100;5.116;2022-07-03T02:29:41;101557.78;;;18.66;61.00
51876;BME280;34054;52.100;5.116;2022-07-03T02:30:18;101569.97;;;18.60;61.83
51876;BME280;34054;52.100;5.116;2022-07-03T02:30:54;101560.91;;;18.59;62.04
51876;BME280;34054;52.100;5.116;2022-07-03T02:31:34;101571.00;;;18.64;62.05
51876;BME280;34054;52.100;5.116;2022-07-03T02:32:11;101570.78;;;18.60;62.08
51876;BME280;34054;52.100;5.116;2022-07-03T02:32:51;101569.97;;;18.60;62.15
51876;BME280;34054;52.100;5.116;2022-07-03T02:33:25;101570.09;;;18.49;62.31
51876;BME280;34054;52.100;5.116;2022-07-03T02:34:01;101563.66;;;18.35;62.73
51876;BME280;34054;52.100;5.116;2022-07-03T02:34:38;101570.56;;;18.32;63.17
51876;BME280;34054;52.100;5.116;2022-07-03T02:35:18;101572.06;;;18.44;63.12
51876;BME280;34054;52.100;5.116;2022-07-03T02:35:57;101574.91;;;18.39;62.85
51876;BME280;34054;52.100;5.116;2022-07-03T02:36:32;101563.13;;;18.33;63.05
51876;BME280;34054;52.100;5.116;2022-07-03T02:37:09;101576.22;;;18.41;62.93
51876;BME280;34054;52.100;5.116;2022-07-03T02:37:45;101572.06;;;18.44;62.90
51876;BME280;34054;52.100;5.116;2022-07-03T02:38:23;101569.81;;;18.51;62.84
51876;BME280;34054;52.100;5.116;2022-07-03T02:38:56;101571.97;;;18.54;62.70
51876;BME280;34054;52.100;5.116;2022-07-03T02:39:35;101572.44;;;18.61;62.52
51876;BME280;34054;52.100;5.116;2022-07-03T02:40:20;101581.97;;;18.69;62.39
51876;BME280;34054;52.100;5.116;2022-07-03T02:41:02;101571.19;;;18.73;62.17
51876;BME280;34054;52.100;5.116;2022-07-03T02:41:45;101568.91;;;18.80;62.06
51876;BME280;34054;52.100;5.116;2022-07-03T02:42:30;101566.38;;;18.83;61.54
51876;BME280;34054;52.100;5.116;2022-07-03T02:43:15;101569.72;;;18.80;61.39
51876;BME280;34054;52.100;5.116;2022-07-03T02:43:59;101570.53;;;18.81;61.39
51876;BME280;34054;52.100;5.116;2022-07-03T02:44:40;101558.25;;;18.73;61.37
51876;BME280;34054;52.100;5.116;2022-07-03T02:45:18;101563.53;;;18.70;61.38
51876;BME280;34054;52.100;5.116;2022-07-03T02:46:00;101570.75;;;18.65;61.47
51876;BME280;34054;52.100;5.116;2022-07-03T02:47:00;101572.50;;;18.56;61.32
51876;BME280;34054;52.100;5.116;2022-07-03T02:47:46;101563.91;;;18.39;62.37
51876;BME280;34054;52.100;5.116;2022-07-03T02:48:29;101570.09;;;18.49;62.35
51876;BME280;34054;52.100;5.116;2022-07-03T02:49:14;101560.97;;;18.54;62.26
51876;BME280;34054;52.100;5.116;2022-07-03T02:49:58;101562.53;;;18.60;62.27
51876;BME280;34054;52.100;5.116;2022-07-03T02:50:36;101554.59;;;18.59;62.18
51876;BME280;34054;52.100;5.116;2022-07-03T02:51:19;101562.53;;;18.60;61.76
51876;BME280;34054;52.100;5.116;2022-07-03T02:52:01;101563.66;;;18.59;62.02
51876;BME280;34054;52.100;5.116;2022-07-03T02:52:47;101572.97;;;18.63;61.81
51876;BME280;34054;52.100;5.116;2022-07-03T02:53:30;101568.69;;;18.52;61.88
51876;BME280;34054;52.100;5.116;2022-07-03T02:54:09;101567.81;;;18.57;61.80
51876;BME280;34054;52.100;5.116;2022-07-03T02:54:46;101569.97;;;18.60;62.15
51876;BME280;34054;52.100;5.116;2022-07-03T02:55:40;101563.91;;;18.63;61.92
51876;BME280;34054;52.100;5.116;2022-07-03T02:56:15;101564.81;;;18.53;61.98
51876;BME280;34054;52.100;5.116;2022-07-03T02:57:05;101568.03;;;18.60;61.98
51876;BME280;34054;52.100;5.116;2022-07-03T02:57:40;101573.72;;;18.69;61.78
51876;BME280;34054;52.100;5.116;2022-07-03T02:58:30;101555.13;;;18.61;61.76
51876;BME280;34054;52.100;5.116;2022-07-03T02:59:14;101574.19;;;18.52;62.06
51876;BME280;34054;52.100;5.116;2022-07-03T02:59:57;101565.13;;;18.51;61.87
51876;BME280;34054;52.100;5.116;2022-07-03T03:00:35;101570.63;;;18.51;61.98
51876;BME280;34054;52.100;5.116;2022-07-03T03:01:19;101565.66;;;18.54;62.22
51876;BME280;34054;52.100;5.116;2022-07-03T03:02:05;101567.75;;;18.62;62.00
51876;BME280;34054;52.100;5.116;2022-07-03T03:02:53;101566.69;;;18.58;62.23
51876;BME280;34054;52.100;5.116;2022-07-03T03:03:27;101567.53;;;18.58;61.88
51876;BME280;34054;52.100;5.116;2022-07-03T03:04:08;101552.56;;;18.45;61.99
51876;BME280;34054;52.100;5.116;2022-07-03T03:04:44;101562.59;;;18.55;62.02
51876;BME280;34054;52.100;5.116;2022-07-03T03:05:31;101566.47;;;18.54;62.20
51876;BME280;34054;52.100;5.116;2022-07-03T03:06:12;101567.19;;;18.41;62.35
51876;BME280;34054;52.100;5.116;2022-07-03T03:06:51;101542.88;;;18.24;62.62
51876;BME280;34054;52.100;5.116;2022-07-03T03:07:29;101555.44;;;18.30;62.83
51876;BME280;34054;52.100;5.116;2022-07-03T03:08:16;101561.94;;;18.15;63.25
51876;BME280;34054;52.100;5.116;2022-07-03T03:09:00;101554.59;;;18.10;63.81
51876;BME280;34054;52.100;5.116;2022-07-03T03:09:41;101553.25;;;18.08;63.71
51876;BME280;34054;52.100;5.116;2022-07-03T03:10:14;101542.00;;;18.04;63.78
51876;BME280;34054;52.100;5.116;2022-07-03T03:10:50;101542.72;;;18.15;63.49
51876;BME280;34054;52.100;5.116;2022-07-03T03:11:31;101558.47;;;18.33;63.40
51876;BME280;34054;52.100;5.116;2022-07-03T03:12:12;101559.44;;;18.43;63.37
51876;BME280;34054;52.100;5.116;2022-07-03T03:12:47;101554.13;;;18.51;63.01
51876;BME280;34054;52.100;5.116;2022-07-03T03:13:28;101557.19;;;18.50;62.72
51876;BME280;34054;52.100;5.116;2022-07-03T03:14:06;101541.31;;;18.42;62.86
51876;BME280;34054;52.100;5.116;2022-07-03T03:14:42;101546.75;;;18.47;62.78
51876;BME280;34054;52.100;5.116;2022-07-03T03:15:15;101559.31;;;18.53;62.46
51876;BME280;34054;52.100;5.116;2022-07-03T03:15:58;101559.69;;;18.46;62.68
51876;BME280;34054;52.100;5.116;2022-07-03T03:16:36;101564.66;;;18.44;62.65
51876;BME280;34054;52.100;5.116;2022-07-03T03:17:18;101562.50;;;18.41;62.73
51876;BME280;34054;52.100;5.116;2022-07-03T03:17:56;101559.72;;;18.41;62.93
51876;BME280;34054;52.100;5.116;2022-07-03T03:18:35;101558.28;;;18.49;63.10
51876;BME280;34054;52.100;5.116;2022-07-03T03:19:09;101559.31;;;18.53;62.90
51876;BME280;34054;52.100;5.116;2022-07-03T03:19:46;101550.41;;;18.61;62.79